Effingham, IL

8:19 AM CDT on May 25, 2017 (GMT -0500)
Effingham

Weather History for K1H2 - February, 2014

Change the Weather History Date:

Tuesday, February 18, 2014

  Actual Average (KMTO) Record (KMTO)
Temperature  
Mean Temperature 40 °F -  
Max Temperature 53 °F 43 °F 68 °F (1961)
Min Temperature 26 °F 25 °F -9 °F (1993)
Degree Days  
Heating Degree Days 26    
Moisture  
Dew Point 25 °F    
Average Humidity 51    
Maximum Humidity 77    
Minimum Humidity 30    
Precipitation  
Precipitation 0.00 in - - ()
Sea Level Pressure  
Sea Level Pressure 29.92 in    
Wind  
Wind Speed 8 mph (South)    
Max Wind Speed 16 mph    
Max Gust Speed 28 mph    
Visibility 10 miles    
Events      
Averages and records for this station are not official NWS values.
T = Trace of Precipitation, MM = Missing Value Source: NWS Daily Summary

Daily Weather History Graph

Daily Weather History Graph

Search for Another Location

Airport or City:

Trip Planner

Search our weather history database for the weather conditions in past years. The results will help you decide how hot, cold, wet, or windy it might be!

Date:

Astronomy

Feb. 18, 2014 Rise Set
Actual Time 6:41 AM CST 5:34 PM CST
Civil Twilight 6:14 AM CST 6:02 PM CST
Nautical Twilight 5:43 AM CST 6:33 PM CST
Astronomical Twilight 5:12 AM CST 7:04 PM CST
Moon 9:25 PM CST (2/18) 8:15 AM CST (2/18)
Length of Visible Light 11h 47m
Length of Day
10h 53m
Waning Gibbous, 87% of the Moon is Illuminated
Feb 18
Waning Gibbous
Feb 22
Last Quarter
Mar 1
New
Mar 8
First Quarter
Mar 16
Full

Hourly Weather History & Observations

Time (CST) Temp. Windchill Dew Point Humidity Pressure Visibility Wind Dir Wind Speed Gust Speed Precip Events Conditions
12:15 AM 39.2 °F 33.0 °F 25.9 °F 59% 30.00 in 10.0 mi WSW 9.2 mph - N/A   Clear
12:35 AM 39.0 °F 32.8 °F 25.5 °F 58% 30.00 in 10.0 mi WSW 9.2 mph - N/A   Clear
12:55 AM 38.1 °F 31.7 °F 25.2 °F 60% 30.01 in 10.0 mi WSW 9.2 mph 16.1 mph N/A   Clear
1:15 AM 36.5 °F 31.0 °F 24.8 °F 63% 30.02 in 10.0 mi WSW 6.9 mph - N/A   Clear
1:35 AM 35.6 °F 29.2 °F 24.4 °F 64% 30.02 in 10.0 mi SW 8.1 mph - N/A   Clear
1:55 AM 34.7 °F 27.5 °F 23.9 °F 65% 30.03 in 10.0 mi SW 9.2 mph - N/A   Clear
2:15 AM 34.9 °F 29.9 °F 23.4 °F 63% 30.04 in 10.0 mi SW 5.8 mph - N/A   Clear
2:35 AM 34.7 °F 29.6 °F 23.0 °F 62% 30.04 in 10.0 mi SW 5.8 mph - N/A   Clear
2:55 AM 34.0 °F 28.8 °F 22.5 °F 63% 30.04 in 10.0 mi SW 5.8 mph - N/A   Clear
3:15 AM 33.4 °F 28.1 °F 22.3 °F 64% 30.04 in 10.0 mi SSW 5.8 mph - N/A   Clear
3:35 AM 33.4 °F 28.1 °F 22.3 °F 64% 30.04 in 10.0 mi SSW 5.8 mph - N/A   Clear
3:55 AM 32.9 °F 27.5 °F 21.9 °F 64% 30.05 in 10.0 mi SW 5.8 mph - N/A   Clear
4:15 AM 33.1 °F 27.7 °F 21.6 °F 63% 30.06 in 10.0 mi SW 5.8 mph - N/A   Clear
4:35 AM 32.5 °F 29.3 °F 21.4 °F 64% 30.06 in 10.0 mi SSW 3.5 mph - N/A   Clear
4:55 AM 31.5 °F 28.1 °F 20.8 °F 65% 30.06 in 10.0 mi SSW 3.5 mph - N/A   Clear
5:15 AM 29.5 °F 25.9 °F 21.6 °F 72% 30.06 in 10.0 mi SE 3.5 mph - N/A   Clear
5:35 AM 26.8 °F 22.8 °F 20.3 °F 77% 30.05 in 10.0 mi SE 3.5 mph - N/A   Clear
5:55 AM 27.7 °F 22.4 °F 19.8 °F 72% 30.05 in 10.0 mi SSE 4.6 mph - N/A   Clear
6:15 AM 27.5 °F 22.2 °F 19.4 °F 72% 30.05 in 10.0 mi SE 4.6 mph - N/A   Clear
6:35 AM 27.0 °F 23.0 °F 19.0 °F 72% 30.04 in 10.0 mi SSE 3.5 mph - N/A   Clear
6:55 AM 28.8 °F 22.6 °F 20.7 °F 72% 30.04 in 10.0 mi SSE 5.8 mph - N/A   Clear
7:15 AM 32.7 °F 28.3 °F 20.3 °F 60% 30.05 in 10.0 mi SSE 4.6 mph - N/A   Clear
7:35 AM 33.4 °F 28.1 °F 20.3 °F 59% 30.04 in 10.0 mi SSE 5.8 mph - N/A   Clear
7:55 AM 35.6 °F 31.7 °F 20.8 °F 55% 30.04 in 10.0 mi SSE 4.6 mph - N/A   Clear
8:15 AM 37.4 °F 33.8 °F 21.7 °F 53% 30.04 in 10.0 mi South 4.6 mph - N/A   Clear
8:35 AM 39.4 °F 34.5 °F 22.5 °F 51% 30.02 in 10.0 mi SSE 6.9 mph - N/A   Clear
8:55 AM 41.0 °F 36.4 °F 22.8 °F 48% 30.01 in 10.0 mi SSE 6.9 mph - N/A   Clear
9:15 AM 43.0 °F 38.2 °F 23.4 °F 46% 30.01 in 10.0 mi SSE 8.1 mph - N/A   Clear
9:35 AM 44.8 °F 41.0 °F 23.7 °F 44% 30.01 in 10.0 mi South 6.9 mph - N/A   Clear
9:55 AM 46.4 °F 43.5 °F 23.9 °F 41% 30.00 in 10.0 mi SSE 5.8 mph - N/A   Clear
10:15 AM 48.4 °F - 23.2 °F 37% 30.01 in 10.0 mi SSW 8.1 mph - N/A   Clear
10:35 AM 49.3 °F - 23.7 °F 37% 30.01 in 10.0 mi SSW 6.9 mph - N/A   Clear
10:55 AM 50.4 °F - 23.4 °F 35% 30.00 in 10.0 mi SSW 9.2 mph - N/A   Clear
11:15 AM 51.6 °F - 23.4 °F 33% 29.99 in 10.0 mi South 10.4 mph - N/A   Clear
11:35 AM 51.4 °F - 23.2 °F 33% 29.98 in 10.0 mi South 10.4 mph 20.7 mph N/A   Clear
11:55 AM 52.3 °F - 23.0 °F 32% 29.97 in 10.0 mi SSW 13.8 mph 19.6 mph N/A   Clear
12:15 PM 52.2 °F - 23.9 °F 33% 29.95 in 10.0 mi South 9.2 mph 18.4 mph N/A   Clear
12:35 PM 53.1 °F - 24.1 °F 32% 29.93 in 10.0 mi South 12.7 mph 17.3 mph N/A   Clear
12:55 PM 52.7 °F - 24.3 °F 33% 29.93 in 10.0 mi South 13.8 mph 21.9 mph N/A   Clear
1:15 PM 52.9 °F - 23.9 °F 32% 29.90 in 10.0 mi South 16.1 mph 23.0 mph N/A   Clear
1:35 PM 53.6 °F - 23.4 °F 31% 29.89 in 10.0 mi South 12.7 mph 20.7 mph N/A   Clear
1:55 PM 52.9 °F - 22.1 °F 30% 29.87 in 10.0 mi South 16.1 mph 27.6 mph N/A   Clear
2:15 PM 52.0 °F - 23.4 °F 33% 29.86 in 10.0 mi South 11.5 mph 25.3 mph N/A   Clear
2:35 PM 52.5 °F - 24.6 °F 34% 29.85 in 10.0 mi South 9.2 mph 18.4 mph N/A   Clear
2:55 PM 53.1 °F - 26.1 °F 35% 29.84 in 10.0 mi SSE 13.8 mph 18.4 mph N/A   Clear
3:15 PM 52.0 °F - 27.1 °F 38% 29.83 in 10.0 mi South 10.4 mph 17.3 mph N/A   Clear
3:35 PM 52.2 °F - 26.4 °F 37% 29.81 in 10.0 mi South 11.5 mph 20.7 mph N/A   Clear
3:55 PM 52.3 °F - 26.1 °F 36% 29.81 in 10.0 mi South 11.5 mph 19.6 mph N/A   Clear
4:15 PM 52.3 °F - 26.4 °F 37% 29.80 in 10.0 mi South 11.5 mph 18.4 mph N/A   Clear
4:35 PM 52.2 °F - 26.6 °F 37% 29.80 in 10.0 mi South 10.4 mph - N/A   Clear
4:55 PM 50.4 °F - 27.0 °F 40% 29.80 in 10.0 mi South 6.9 mph - N/A   Clear
5:15 PM 49.5 °F - 27.1 °F 42% 29.80 in 10.0 mi South 6.9 mph - N/A   Clear
5:35 PM 48.2 °F - 28.0 °F 46% 29.79 in 10.0 mi SSE 6.9 mph - N/A   Clear
5:55 PM 48.9 °F - 27.7 °F 44% 29.80 in 10.0 mi South 6.9 mph - N/A   Scattered Clouds
6:15 PM 48.4 °F - 28.2 °F 46% 29.80 in 10.0 mi South 6.9 mph - N/A   Scattered Clouds
6:35 PM 48.4 °F - 28.4 °F 46% 29.80 in 10.0 mi South 8.1 mph - N/A   Clear
6:55 PM 48.4 °F - 28.8 °F 47% 29.80 in 10.0 mi South 6.9 mph - N/A   Clear
7:15 PM 48.2 °F - 29.1 °F 48% 29.80 in 10.0 mi South 8.1 mph - N/A   Clear
7:35 PM 48.4 °F - 29.7 °F 48% 29.80 in 10.0 mi South 5.8 mph - N/A   Clear
7:55 PM 48.4 °F - 30.2 °F 49% 29.80 in 10.0 mi South 6.9 mph - N/A   Clear
8:15 PM 47.8 °F - 30.7 °F 52% 29.80 in 10.0 mi South 5.8 mph - N/A   Clear
8:35 PM 47.8 °F - 31.1 °F 52% 29.80 in 10.0 mi South 6.9 mph - N/A   Clear
8:55 PM 47.7 °F - 31.8 °F 54% 29.79 in 10.0 mi South 6.9 mph - N/A   Clear
9:15 PM 47.7 °F - 32.0 °F 55% 29.78 in 10.0 mi South 6.9 mph - N/A   Clear
9:35 PM 47.5 °F - 32.9 °F 57% 29.78 in 10.0 mi South 5.8 mph - N/A   Clear
9:55 PM 47.3 °F - 33.8 °F 59% 29.77 in 10.0 mi South 5.8 mph - N/A   Clear
10:15 PM 45.7 °F 42.7 °F 33.6 °F 63% 29.77 in 10.0 mi South 5.8 mph - N/A   Clear
10:35 PM 45.5 °F 43.2 °F 34.3 °F 65% 29.77 in 10.0 mi SSW 4.6 mph - N/A   Clear
10:55 PM 45.0 °F 42.6 °F 34.2 °F 66% 29.76 in 10.0 mi SSW 4.6 mph - N/A   Clear
11:35 PM 44.2 °F 41.0 °F 35.4 °F 71% 29.75 in 10.0 mi SSW 5.8 mph - N/A   Clear
11:55 PM 43.3 °F 39.2 °F 35.6 °F 74% 29.75 in 10.0 mi SSW 6.9 mph - N/A   Clear